sensor_id;sensor_type;location;lat;lon;timestamp;pressure;altitude;pressure_sealevel;temperature;humidity
37078;BME280;22989;55.998;37.212;2023-03-03T00:01:22;-11298.94;;;-145.39;58.74
37078;BME280;22989;55.998;37.212;2023-03-03T00:03:49;-11298.94;;;-145.39;58.79
37078;BME280;22989;55.998;37.212;2023-03-03T00:06:15;-11298.94;;;-145.39;58.93
37078;BME280;22989;55.998;37.212;2023-03-03T00:08:41;-11298.94;;;-145.39;58.92
37078;BME280;22989;55.998;37.212;2023-03-03T00:11:07;-11298.94;;;-145.39;58.84
37078;BME280;22989;55.998;37.212;2023-03-03T00:13:42;-11298.94;;;-145.39;58.97
37078;BME280;22989;55.998;37.212;2023-03-03T00:16:23;-11298.94;;;-145.39;59.00
37078;BME280;22989;55.998;37.212;2023-03-03T00:18:51;-11298.94;;;-145.39;58.99
37078;BME280;22989;55.998;37.212;2023-03-03T00:21:31;-11298.94;;;-145.39;58.89
37078;BME280;22989;55.998;37.212;2023-03-03T00:24:14;-11298.94;;;-145.39;59.06
37078;BME280;22989;55.998;37.212;2023-03-03T00:26:44;-11298.94;;;-145.39;59.18
37078;BME280;22989;55.998;37.212;2023-03-03T00:31:52;-11298.94;;;-145.39;59.56
37078;BME280;22989;55.998;37.212;2023-03-03T00:34:26;-11298.94;;;-145.39;59.56
37078;BME280;22989;55.998;37.212;2023-03-03T00:36:55;-11298.94;;;-145.39;59.61
37078;BME280;22989;55.998;37.212;2023-03-03T00:39:34;-11298.94;;;-145.39;59.80
37078;BME280;22989;55.998;37.212;2023-03-03T00:42:00;-11298.94;;;-145.39;59.77
37078;BME280;22989;55.998;37.212;2023-03-03T00:49:52;-11298.94;;;-145.39;60.12
37078;BME280;22989;55.998;37.212;2023-03-03T00:52:19;-11298.94;;;-145.39;60.03
37078;BME280;22989;55.998;37.212;2023-03-03T00:54:45;-11298.94;;;-145.39;60.38
37078;BME280;22989;55.998;37.212;2023-03-03T00:57:11;-11298.94;;;-145.39;60.32
37078;BME280;22989;55.998;37.212;2023-03-03T00:59:38;-11298.94;;;-145.39;60.44
37078;BME280;22989;55.998;37.212;2023-03-03T01:02:05;-11298.94;;;-145.39;60.52
37078;BME280;22989;55.998;37.212;2023-03-03T01:04:31;-11298.94;;;-145.39;60.55
37078;BME280;22989;55.998;37.212;2023-03-03T01:06:56;-11298.94;;;-145.39;60.79
37078;BME280;22989;55.998;37.212;2023-03-03T01:09:22;-11298.94;;;-145.39;60.88
37078;BME280;22989;55.998;37.212;2023-03-03T01:11:48;-11298.94;;;-145.39;60.93
37078;BME280;22989;55.998;37.212;2023-03-03T01:14:14;-11298.94;;;-145.39;61.00
37078;BME280;22989;55.998;37.212;2023-03-03T01:16:40;-11298.94;;;-145.39;61.05
37078;BME280;22989;55.998;37.212;2023-03-03T01:19:06;-11298.94;;;-145.39;61.07
37078;BME280;22989;55.998;37.212;2023-03-03T01:21:32;-11298.94;;;-145.39;61.12
37078;BME280;22989;55.998;37.212;2023-03-03T01:23:57;-11298.94;;;-145.39;61.29
37078;BME280;22989;55.998;37.212;2023-03-03T01:26:23;-11298.94;;;-145.39;61.21
37078;BME280;22989;55.998;37.212;2023-03-03T01:28:49;-11298.94;;;-145.39;61.32
37078;BME280;22989;55.998;37.212;2023-03-03T01:31:15;-11298.94;;;-145.39;61.34
37078;BME280;22989;55.998;37.212;2023-03-03T01:33:41;-11298.94;;;-145.39;61.51
37078;BME280;22989;55.998;37.212;2023-03-03T01:36:07;-11298.94;;;-145.39;61.39
37078;BME280;22989;55.998;37.212;2023-03-03T01:38:37;-11298.94;;;-145.39;61.34
37078;BME280;22989;55.998;37.212;2023-03-03T01:41:03;-11298.94;;;-145.39;61.39
37078;BME280;22989;55.998;37.212;2023-03-03T01:43:30;-11298.94;;;-145.39;61.51
37078;BME280;22989;55.998;37.212;2023-03-03T01:48:28;-11298.94;;;-145.39;61.42
37078;BME280;22989;55.998;37.212;2023-03-03T01:53:51;-11298.94;;;-145.39;61.34
37078;BME280;22989;55.998;37.212;2023-03-03T01:56:18;-11298.94;;;-145.39;61.12
37078;BME280;22989;55.998;37.212;2023-03-03T01:59:04;-11298.94;;;-145.39;61.15
37078;BME280;22989;55.998;37.212;2023-03-03T02:01:32;-11298.94;;;-145.39;61.03
37078;BME280;22989;55.998;37.212;2023-03-03T02:03:58;-11298.94;;;-145.39;61.00
37078;BME280;22989;55.998;37.212;2023-03-03T02:06:36;-11298.94;;;-145.39;61.10
37078;BME280;22989;55.998;37.212;2023-03-03T02:09:29;-11298.94;;;-145.39;61.08
37078;BME280;22989;55.998;37.212;2023-03-03T02:11:59;-11298.94;;;-145.39;61.08
37078;BME280;22989;55.998;37.212;2023-03-03T02:14:27;-11298.94;;;-145.39;61.13
37078;BME280;22989;55.998;37.212;2023-03-03T02:16:52;-11298.94;;;-145.39;60.92
37078;BME280;22989;55.998;37.212;2023-03-03T02:22:12;-11298.94;;;-145.39;61.08
37078;BME280;22989;55.998;37.212;2023-03-03T02:24:59;-11298.94;;;-145.39;61.05
37078;BME280;22989;55.998;37.212;2023-03-03T02:27:27;-11298.94;;;-145.39;60.93
37078;BME280;22989;55.998;37.212;2023-03-03T02:29:56;-11298.94;;;-145.39;60.80
37078;BME280;22989;55.998;37.212;2023-03-03T02:32:22;-11298.94;;;-145.39;60.75
37078;BME280;22989;55.998;37.212;2023-03-03T02:34:50;-11298.94;;;-145.39;60.88
37078;BME280;22989;55.998;37.212;2023-03-03T02:37:17;-11298.94;;;-145.39;60.81
37078;BME280;22989;55.998;37.212;2023-03-03T02:39:44;-11298.94;;;-145.39;60.57
37078;BME280;22989;55.998;37.212;2023-03-03T02:42:19;-11298.94;;;-145.39;60.93
37078;BME280;22989;55.998;37.212;2023-03-03T02:44:51;-11298.94;;;-145.39;61.00
37078;BME280;22989;55.998;37.212;2023-03-03T02:47:17;-11298.94;;;-145.39;60.83
37078;BME280;22989;55.998;37.212;2023-03-03T02:49:42;-11298.94;;;-145.39;60.74
37078;BME280;22989;55.998;37.212;2023-03-03T02:52:10;-11298.94;;;-145.39;60.68
37078;BME280;22989;55.998;37.212;2023-03-03T02:54:39;-11298.94;;;-145.39;60.44
37078;BME280;22989;55.998;37.212;2023-03-03T02:57:05;-11298.94;;;-145.39;60.67
37078;BME280;22989;55.998;37.212;2023-03-03T02:59:31;-11298.94;;;-145.39;60.63
37078;BME280;22989;55.998;37.212;2023-03-03T03:02:04;-11298.94;;;-145.39;60.76
37078;BME280;22989;55.998;37.212;2023-03-03T03:04:31;-11298.94;;;-145.39;60.71
37078;BME280;22989;55.998;37.212;2023-03-03T03:06:57;-11298.94;;;-145.39;60.88
37078;BME280;22989;55.998;37.212;2023-03-03T03:09:25;-11298.94;;;-145.39;60.95
37078;BME280;22989;55.998;37.212;2023-03-03T03:11:53;-11298.94;;;-145.39;60.87
37078;BME280;22989;55.998;37.212;2023-03-03T03:14:22;-11298.94;;;-145.39;61.01
37078;BME280;22989;55.998;37.212;2023-03-03T03:16:48;-11298.94;;;-145.39;61.09
37078;BME280;22989;55.998;37.212;2023-03-03T03:19:14;-11298.94;;;-145.39;61.20
37078;BME280;22989;55.998;37.212;2023-03-03T03:21:42;-11298.94;;;-145.39;61.18
37078;BME280;22989;55.998;37.212;2023-03-03T03:24:09;-11298.94;;;-145.39;61.37
37078;BME280;22989;55.998;37.212;2023-03-03T03:26:37;-11298.94;;;-145.39;61.41
37078;BME280;22989;55.998;37.212;2023-03-03T03:29:03;-11298.94;;;-145.39;61.54
37078;BME280;22989;55.998;37.212;2023-03-03T03:31:29;-11298.94;;;-145.39;61.56
37078;BME280;22989;55.998;37.212;2023-03-03T03:33:54;-11298.94;;;-145.39;61.73
37078;BME280;22989;55.998;37.212;2023-03-03T03:36:21;-11298.94;;;-145.39;61.85
37078;BME280;22989;55.998;37.212;2023-03-03T03:38:48;-11298.94;;;-145.39;61.93
37078;BME280;22989;55.998;37.212;2023-03-03T03:41:14;-11298.94;;;-145.39;61.93
37078;BME280;22989;55.998;37.212;2023-03-03T03:43:39;-11298.94;;;-145.39;61.92
37078;BME280;22989;55.998;37.212;2023-03-03T03:46:06;-11298.94;;;-145.39;62.09
37078;BME280;22989;55.998;37.212;2023-03-03T03:48:33;-11298.94;;;-145.39;62.12
37078;BME280;22989;55.998;37.212;2023-03-03T03:51:00;-11298.94;;;-145.39;62.16
37078;BME280;22989;55.998;37.212;2023-03-03T03:53:27;-11298.94;;;-145.39;62.36
37078;BME280;22989;55.998;37.212;2023-03-03T03:55:52;-11298.94;;;-145.39;62.62
37078;BME280;22989;55.998;37.212;2023-03-03T03:58:18;-11298.94;;;-145.39;62.57
37078;BME280;22989;55.998;37.212;2023-03-03T04:00:51;-11298.94;;;-145.39;62.66
37078;BME280;22989;55.998;37.212;2023-03-03T04:03:17;-11298.94;;;-145.39;62.56
37078;BME280;22989;55.998;37.212;2023-03-03T04:05:44;-11298.94;;;-145.39;62.75
37078;BME280;22989;55.998;37.212;2023-03-03T04:08:11;-11298.94;;;-145.39;62.79
37078;BME280;22989;55.998;37.212;2023-03-03T04:10:38;-11298.94;;;-145.39;62.92
37078;BME280;22989;55.998;37.212;2023-03-03T04:13:05;-11298.94;;;-145.39;63.01
37078;BME280;22989;55.998;37.212;2023-03-03T04:15:32;-11298.94;;;-145.39;63.05
37078;BME280;22989;55.998;37.212;2023-03-03T04:17:59;-11298.94;;;-145.39;63.10
37078;BME280;22989;55.998;37.212;2023-03-03T04:20:25;-11298.94;;;-145.39;63.10
37078;BME280;22989;55.998;37.212;2023-03-03T04:22:53;-11298.94;;;-145.39;63.22
37078;BME280;22989;55.998;37.212;2023-03-03T04:25:23;-11298.94;;;-145.39;63.47
37078;BME280;22989;55.998;37.212;2023-03-03T04:27:50;-11298.94;;;-145.39;63.18
37078;BME280;22989;55.998;37.212;2023-03-03T04:30:19;-11298.94;;;-145.39;63.16
37078;BME280;22989;55.998;37.212;2023-03-03T04:32:47;-11298.94;;;-145.39;63.32
37078;BME280;22989;55.998;37.212;2023-03-03T04:35:17;-11298.94;;;-145.39;63.13
37078;BME280;22989;55.998;37.212;2023-03-03T04:37:43;-11298.94;;;-145.39;63.37
37078;BME280;22989;55.998;37.212;2023-03-03T04:40:10;-11298.94;;;-145.39;63.28
37078;BME280;22989;55.998;37.212;2023-03-03T04:42:36;-11298.94;;;-145.39;63.16
37078;BME280;22989;55.998;37.212;2023-03-03T04:45:03;-11298.94;;;-145.39;63.30
37078;BME280;22989;55.998;37.212;2023-03-03T04:47:30;-11298.94;;;-145.39;63.28
37078;BME280;22989;55.998;37.212;2023-03-03T04:49:57;-11298.94;;;-145.39;63.40
37078;BME280;22989;55.998;37.212;2023-03-03T04:52:23;-11298.94;;;-145.39;63.65
37078;BME280;22989;55.998;37.212;2023-03-03T04:54:49;-11298.94;;;-145.39;63.49
37078;BME280;22989;55.998;37.212;2023-03-03T04:57:15;-11298.94;;;-145.39;63.53
37078;BME280;22989;55.998;37.212;2023-03-03T04:59:41;-11298.94;;;-145.39;63.50
37078;BME280;22989;55.998;37.212;2023-03-03T05:02:06;-11298.94;;;-145.39;63.30
37078;BME280;22989;55.998;37.212;2023-03-03T05:04:32;-11298.94;;;-145.39;63.47
37078;BME280;22989;55.998;37.212;2023-03-03T05:06:58;-11298.94;;;-145.39;63.12
37078;BME280;22989;55.998;37.212;2023-03-03T05:09:23;-11298.94;;;-145.39;63.31
37078;BME280;22989;55.998;37.212;2023-03-03T05:11:49;-11298.94;;;-145.39;63.23
37078;BME280;22989;55.998;37.212;2023-03-03T05:14:14;-11298.94;;;-145.39;63.14
37078;BME280;22989;55.998;37.212;2023-03-03T05:16:40;-11298.94;;;-145.39;63.18
37078;BME280;22989;55.998;37.212;2023-03-03T05:19:06;-11298.94;;;-145.39;62.98
37078;BME280;22989;55.998;37.212;2023-03-03T05:21:32;-11298.94;;;-145.39;63.10
37078;BME280;22989;55.998;37.212;2023-03-03T05:23:57;-11298.94;;;-145.39;62.84
37078;BME280;22989;55.998;37.212;2023-03-03T05:26:23;-11298.94;;;-145.39;62.82
37078;BME280;22989;55.998;37.212;2023-03-03T05:28:48;-11298.94;;;-145.39;62.77
37078;BME280;22989;55.998;37.212;2023-03-03T05:31:14;-11298.94;;;-145.39;62.83
37078;BME280;22989;55.998;37.212;2023-03-03T05:33:39;-11298.94;;;-145.39;62.83
37078;BME280;22989;55.998;37.212;2023-03-03T05:36:05;-11298.94;;;-145.39;62.66
37078;BME280;22989;55.998;37.212;2023-03-03T05:38:31;-11298.94;;;-145.39;62.79
37078;BME280;22989;55.998;37.212;2023-03-03T05:40:56;-11298.94;;;-145.39;62.53
37078;BME280;22989;55.998;37.212;2023-03-03T05:43:22;-11298.94;;;-145.39;62.53
37078;BME280;22989;55.998;37.212;2023-03-03T05:45:54;-11298.94;;;-145.39;62.51
37078;BME280;22989;55.998;37.212;2023-03-03T05:48:20;-11298.94;;;-145.39;62.24
37078;BME280;22989;55.998;37.212;2023-03-03T05:50:45;-11298.94;;;-145.39;62.34
37078;BME280;22989;55.998;37.212;2023-03-03T05:53:11;-11298.94;;;-145.39;62.41
37078;BME280;22989;55.998;37.212;2023-03-03T05:55:36;-11298.94;;;-145.39;62.14
37078;BME280;22989;55.998;37.212;2023-03-03T05:58:02;-11298.94;;;-145.39;61.92
37078;BME280;22989;55.998;37.212;2023-03-03T06:00:28;-11298.94;;;-145.39;61.99
37078;BME280;22989;55.998;37.212;2023-03-03T06:02:53;-11298.94;;;-145.39;61.83
37078;BME280;22989;55.998;37.212;2023-03-03T06:05:19;-11298.94;;;-145.39;61.69
37078;BME280;22989;55.998;37.212;2023-03-03T06:07:44;-11298.94;;;-145.39;61.52
37078;BME280;22989;55.998;37.212;2023-03-03T06:10:10;-11298.94;;;-145.39;61.00
37078;BME280;22989;55.998;37.212;2023-03-03T06:12:38;-11298.94;;;-145.39;61.22
37078;BME280;22989;55.998;37.212;2023-03-03T06:15:06;-11298.94;;;-145.39;60.90
37078;BME280;22989;55.998;37.212;2023-03-03T06:17:32;-11298.94;;;-145.39;60.84
37078;BME280;22989;55.998;37.212;2023-03-03T06:19:57;-11298.94;;;-145.39;60.76
37078;BME280;22989;55.998;37.212;2023-03-03T06:22:23;-11298.94;;;-145.39;60.54
37078;BME280;22989;55.998;37.212;2023-03-03T06:24:49;-11298.94;;;-145.39;60.52
37078;BME280;22989;55.998;37.212;2023-03-03T06:27:14;-11298.94;;;-145.39;60.28
37078;BME280;22989;55.998;37.212;2023-03-03T06:29:40;-11298.94;;;-145.39;60.05
37078;BME280;22989;55.998;37.212;2023-03-03T06:32:05;-11298.94;;;-145.39;59.72
37078;BME280;22989;55.998;37.212;2023-03-03T06:34:31;-11298.94;;;-145.39;59.69
37078;BME280;22989;55.998;37.212;2023-03-03T06:36:57;-11298.94;;;-145.39;59.35
37078;BME280;22989;55.998;37.212;2023-03-03T06:39:23;-11298.94;;;-145.39;59.08
37078;BME280;22989;55.998;37.212;2023-03-03T06:41:48;-11298.94;;;-145.39;58.87
37078;BME280;22989;55.998;37.212;2023-03-03T06:44:14;-11298.94;;;-145.39;58.70
37078;BME280;22989;55.998;37.212;2023-03-03T06:46:39;-11298.94;;;-145.39;58.61
37078;BME280;22989;55.998;37.212;2023-03-03T06:49:05;-11298.94;;;-145.39;58.18
37078;BME280;22989;55.998;37.212;2023-03-03T06:51:33;-11298.94;;;-145.39;58.21
37078;BME280;22989;55.998;37.212;2023-03-03T06:54:12;-11298.94;;;-145.39;58.07
37078;BME280;22989;55.998;37.212;2023-03-03T06:56:38;-11298.94;;;-145.39;58.02
37078;BME280;22989;55.998;37.212;2023-03-03T06:59:16;-11298.94;;;-145.39;57.76
37078;BME280;22989;55.998;37.212;2023-03-03T07:01:43;-11298.94;;;-145.39;57.56
37078;BME280;22989;55.998;37.212;2023-03-03T07:04:36;-11298.94;;;-145.39;57.25
37078;BME280;22989;55.998;37.212;2023-03-03T07:09:37;-11298.94;;;-145.39;57.19
37078;BME280;22989;55.998;37.212;2023-03-03T07:12:10;-11298.94;;;-145.39;57.29
37078;BME280;22989;55.998;37.212;2023-03-03T07:14:50;-11298.94;;;-145.39;57.09
37078;BME280;22989;55.998;37.212;2023-03-03T07:17:24;-11298.94;;;-145.39;56.91
37078;BME280;22989;55.998;37.212;2023-03-03T07:19:50;-11298.94;;;-145.39;56.95
37078;BME280;22989;55.998;37.212;2023-03-03T07:22:18;-11298.94;;;-145.39;56.88
37078;BME280;22989;55.998;37.212;2023-03-03T07:24:46;-11298.94;;;-145.39;56.62
37078;BME280;22989;55.998;37.212;2023-03-03T07:29:48;-11298.94;;;-145.39;56.18
37078;BME280;22989;55.998;37.212;2023-03-03T07:32:42;-11298.94;;;-145.39;55.98
37078;BME280;22989;55.998;37.212;2023-03-03T07:37:47;-11298.94;;;-145.39;55.58
37078;BME280;22989;55.998;37.212;2023-03-03T07:40:38;-11298.94;;;-145.39;55.40
37078;BME280;22989;55.998;37.212;2023-03-03T07:43:29;-11298.94;;;-145.39;55.12
37078;BME280;22989;55.998;37.212;2023-03-03T07:48:36;-11298.94;;;-145.39;55.13
37078;BME280;22989;55.998;37.212;2023-03-03T07:51:27;-11298.94;;;-145.39;54.93
37078;BME280;22989;55.998;37.212;2023-03-03T07:54:11;-11298.94;;;-145.39;54.98
37078;BME280;22989;55.998;37.212;2023-03-03T07:56:38;-11298.94;;;-145.39;54.79
37078;BME280;22989;55.998;37.212;2023-03-03T07:59:37;-11298.94;;;-145.39;54.27
37078;BME280;22989;55.998;37.212;2023-03-03T08:04:53;-11298.94;;;-145.39;54.16
37078;BME280;22989;55.998;37.212;2023-03-03T08:07:20;-11298.94;;;-145.39;54.08
37078;BME280;22989;55.998;37.212;2023-03-03T08:14:53;-11298.94;;;-145.39;53.93
37078;BME280;22989;55.998;37.212;2023-03-03T08:17:21;-11298.94;;;-145.39;53.78
37078;BME280;22989;55.998;37.212;2023-03-03T08:19:49;-11298.94;;;-145.39;53.71
37078;BME280;22989;55.998;37.212;2023-03-03T08:22:18;-11298.94;;;-145.39;53.73
37078;BME280;22989;55.998;37.212;2023-03-03T08:24:44;-11298.94;;;-145.39;53.55
37078;BME280;22989;55.998;37.212;2023-03-03T08:27:10;-11298.94;;;-145.39;53.45
37078;BME280;22989;55.998;37.212;2023-03-03T08:29:36;-11298.94;;;-145.39;53.29
37078;BME280;22989;55.998;37.212;2023-03-03T08:32:01;-11298.94;;;-145.39;52.91
37078;BME280;22989;55.998;37.212;2023-03-03T08:34:27;-11298.94;;;-145.39;52.59
37078;BME280;22989;55.998;37.212;2023-03-03T08:36:52;-11298.94;;;-145.39;52.12
37078;BME280;22989;55.998;37.212;2023-03-03T08:39:18;-11298.94;;;-145.39;51.53
37078;BME280;22989;55.998;37.212;2023-03-03T08:41:44;-11298.94;;;-145.39;51.46
37078;BME280;22989;55.998;37.212;2023-03-03T08:44:10;-11298.94;;;-145.39;51.39
37078;BME280;22989;55.998;37.212;2023-03-03T08:46:36;-11298.94;;;-145.39;51.22
37078;BME280;22989;55.998;37.212;2023-03-03T08:49:02;-11298.94;;;-145.39;51.12
37078;BME280;22989;55.998;37.212;2023-03-03T08:51:27;-11298.94;;;-145.39;51.37
37078;BME280;22989;55.998;37.212;2023-03-03T08:53:53;-11298.94;;;-145.39;51.36
37078;BME280;22989;55.998;37.212;2023-03-03T08:56:19;-11298.94;;;-145.39;51.59
37078;BME280;22989;55.998;37.212;2023-03-03T08:58:45;-11298.94;;;-145.39;51.51
37078;BME280;22989;55.998;37.212;2023-03-03T09:01:13;-11298.94;;;-145.39;50.96
37078;BME280;22989;55.998;37.212;2023-03-03T09:03:41;-11298.94;;;-145.39;50.41
37078;BME280;22989;55.998;37.212;2023-03-03T09:06:07;-11298.94;;;-145.39;49.65
37078;BME280;22989;55.998;37.212;2023-03-03T09:08:33;-11298.94;;;-145.39;49.32
37078;BME280;22989;55.998;37.212;2023-03-03T09:10:58;-11298.94;;;-145.39;48.97
37078;BME280;22989;55.998;37.212;2023-03-03T09:13:28;-11298.94;;;-145.39;48.75
37078;BME280;22989;55.998;37.212;2023-03-03T09:15:55;-11298.94;;;-145.39;48.56
37078;BME280;22989;55.998;37.212;2023-03-03T09:18:41;-11298.94;;;-145.39;48.62
37078;BME280;22989;55.998;37.212;2023-03-03T09:21:23;-11298.94;;;-145.39;48.76
37078;BME280;22989;55.998;37.212;2023-03-03T09:23:55;-11298.94;;;-145.39;48.75
37078;BME280;22989;55.998;37.212;2023-03-03T09:29:00;-11298.94;;;-145.39;48.57
37078;BME280;22989;55.998;37.212;2023-03-03T09:31:39;-11298.94;;;-145.39;48.58
37078;BME280;22989;55.998;37.212;2023-03-03T09:34:40;-11298.94;;;-145.39;48.45
37078;BME280;22989;55.998;37.212;2023-03-03T09:37:31;-11298.94;;;-145.39;48.35
37078;BME280;22989;55.998;37.212;2023-03-03T09:40:00;-11298.94;;;-145.39;48.25
37078;BME280;22989;55.998;37.212;2023-03-03T09:43:10;-11298.94;;;-145.39;47.83
37078;BME280;22989;55.998;37.212;2023-03-03T09:48:37;-11298.94;;;-145.39;47.44
37078;BME280;22989;55.998;37.212;2023-03-03T09:51:22;-11298.94;;;-145.39;47.36
37078;BME280;22989;55.998;37.212;2023-03-03T09:56:40;-11298.94;;;-145.39;47.13
37078;BME280;22989;55.998;37.212;2023-03-03T10:15:41;-11298.94;;;-145.39;49.65
37078;BME280;22989;55.998;37.212;2023-03-03T10:21:08;-11298.94;;;-145.39;50.39
37078;BME280;22989;55.998;37.212;2023-03-03T10:23:50;-11298.94;;;-145.39;50.31
37078;BME280;22989;55.998;37.212;2023-03-03T10:26:34;-11298.94;;;-145.39;50.46
37078;BME280;22989;55.998;37.212;2023-03-03T10:32:01;-11298.94;;;-145.39;50.02
37078;BME280;22989;55.998;37.212;2023-03-03T10:51:16;-11298.94;;;-145.39;50.71
37078;BME280;22989;55.998;37.212;2023-03-03T10:57:07;-11298.94;;;-145.39;51.31
37078;BME280;22989;55.998;37.212;2023-03-03T10:59:52;-11298.94;;;-145.39;51.59
37078;BME280;22989;55.998;37.212;2023-03-03T11:10:40;-11298.94;;;-145.39;50.16
37078;BME280;22989;55.998;37.212;2023-03-03T11:41:33;-11298.94;;;-145.39;44.96
37078;BME280;22989;55.998;37.212;2023-03-03T11:44:16;-11298.94;;;-145.39;45.04
37078;BME280;22989;55.998;37.212;2023-03-03T11:49:39;-11298.94;;;-145.39;44.95
37078;BME280;22989;55.998;37.212;2023-03-03T11:54:47;-11298.94;;;-145.39;45.43
37078;BME280;22989;55.998;37.212;2023-03-03T11:59:59;-11298.94;;;-145.39;46.14
37078;BME280;22989;55.998;37.212;2023-03-03T12:05:30;-11298.94;;;-145.39;46.54
37078;BME280;22989;55.998;37.212;2023-03-03T12:13:38;-11298.94;;;-145.39;47.32
37078;BME280;22989;55.998;37.212;2023-03-03T12:16:18;-11298.94;;;-145.39;47.32
37078;BME280;22989;55.998;37.212;2023-03-03T12:19:24;-11298.94;;;-145.39;47.11
37078;BME280;22989;55.998;37.212;2023-03-03T12:27:19;-11298.94;;;-145.39;47.52
37078;BME280;22989;55.998;37.212;2023-03-03T12:35:18;-11298.94;;;-145.39;47.25
37078;BME280;22989;55.998;37.212;2023-03-03T12:37:55;-11298.94;;;-145.39;47.24
37078;BME280;22989;55.998;37.212;2023-03-03T12:40:25;-11298.94;;;-145.39;47.32
37078;BME280;22989;55.998;37.212;2023-03-03T12:45:58;-11298.94;;;-145.39;47.42
37078;BME280;22989;55.998;37.212;2023-03-03T12:48:42;-11298.94;;;-145.39;47.57
37078;BME280;22989;55.998;37.212;2023-03-03T12:54:21;-11298.94;;;-145.39;47.20
37078;BME280;22989;55.998;37.212;2023-03-03T12:56:55;-11298.94;;;-145.39;47.03
37078;BME280;22989;55.998;37.212;2023-03-03T12:59:50;-11298.94;;;-145.39;46.92
37078;BME280;22989;55.998;37.212;2023-03-03T13:02:38;-11298.94;;;-145.39;49.67
37078;BME280;22989;55.998;37.212;2023-03-03T13:07:42;-11298.94;;;-145.39;48.16
37078;BME280;22989;55.998;37.212;2023-03-03T13:10:40;-11298.94;;;-145.39;47.73
37078;BME280;22989;55.998;37.212;2023-03-03T13:13:19;-11298.94;;;-145.39;47.64
37078;BME280;22989;55.998;37.212;2023-03-03T13:21:39;-11298.94;;;-145.39;47.59
37078;BME280;22989;55.998;37.212;2023-03-03T13:24:22;-11298.94;;;-145.39;47.47
37078;BME280;22989;55.998;37.212;2023-03-03T13:29:43;-11298.94;;;-145.39;47.01
37078;BME280;22989;55.998;37.212;2023-03-03T13:32:19;-11298.94;;;-145.39;46.91
37078;BME280;22989;55.998;37.212;2023-03-03T13:34:54;-11298.94;;;-145.39;46.53
37078;BME280;22989;55.998;37.212;2023-03-03T13:37:35;-11298.94;;;-145.39;45.90
37078;BME280;22989;55.998;37.212;2023-03-03T13:42:47;-11298.94;;;-145.39;45.43
37078;BME280;22989;55.998;37.212;2023-03-03T13:45:34;-11298.94;;;-145.39;45.53
37078;BME280;22989;55.998;37.212;2023-03-03T13:48:21;-11298.94;;;-145.39;45.94
37078;BME280;22989;55.998;37.212;2023-03-03T13:51:20;-11298.94;;;-145.39;46.54
37078;BME280;22989;55.998;37.212;2023-03-03T13:53:56;-11298.94;;;-145.39;47.07
37078;BME280;22989;55.998;37.212;2023-03-03T14:05:14;-11298.94;;;-145.39;48.85
37078;BME280;22989;55.998;37.212;2023-03-03T14:07:44;-11298.94;;;-145.39;48.84
37078;BME280;22989;55.998;37.212;2023-03-03T14:10:21;-11298.94;;;-145.39;49.46
37078;BME280;22989;55.998;37.212;2023-03-03T14:15:41;-11298.94;;;-145.39;49.87
37078;BME280;22989;55.998;37.212;2023-03-03T14:18:32;-11298.94;;;-145.39;50.09
37078;BME280;22989;55.998;37.212;2023-03-03T14:21:08;-11298.94;;;-145.39;50.15
37078;BME280;22989;55.998;37.212;2023-03-03T14:23:52;-11298.94;;;-145.39;50.34
37078;BME280;22989;55.998;37.212;2023-03-03T14:26:21;-11298.94;;;-145.39;50.48
37078;BME280;22989;55.998;37.212;2023-03-03T14:28:49;-11298.94;;;-145.39;50.73
37078;BME280;22989;55.998;37.212;2023-03-03T14:31:24;-11298.94;;;-145.39;50.95
37078;BME280;22989;55.998;37.212;2023-03-03T14:36:31;-11298.94;;;-145.39;51.13
37078;BME280;22989;55.998;37.212;2023-03-03T14:38:58;-11298.94;;;-145.39;51.04
37078;BME280;22989;55.998;37.212;2023-03-03T14:41:38;-11298.94;;;-145.39;50.99
37078;BME280;22989;55.998;37.212;2023-03-03T14:46:44;-11298.94;;;-145.39;50.91
37078;BME280;22989;55.998;37.212;2023-03-03T14:49:33;-11298.94;;;-145.39;50.66
37078;BME280;22989;55.998;37.212;2023-03-03T14:52:26;-11298.94;;;-145.39;50.56
37078;BME280;22989;55.998;37.212;2023-03-03T14:55:26;-11298.94;;;-145.39;50.36
37078;BME280;22989;55.998;37.212;2023-03-03T14:57:50;-11298.94;;;-145.39;50.28
37078;BME280;22989;55.998;37.212;2023-03-03T15:03:19;-11298.94;;;-145.39;50.19
37078;BME280;22989;55.998;37.212;2023-03-03T15:05:54;-11298.94;;;-145.39;50.12
37078;BME280;22989;55.998;37.212;2023-03-03T15:08:34;-11298.94;;;-145.39;50.23
37078;BME280;22989;55.998;37.212;2023-03-03T15:11:25;-11298.94;;;-145.39;49.96
37078;BME280;22989;55.998;37.212;2023-03-03T15:13:52;-11298.94;;;-145.39;49.97
37078;BME280;22989;55.998;37.212;2023-03-03T15:16:31;-11298.94;;;-145.39;50.10
37078;BME280;22989;55.998;37.212;2023-03-03T15:19:24;-11298.94;;;-145.39;50.19
37078;BME280;22989;55.998;37.212;2023-03-03T15:22:23;-11298.94;;;-145.39;50.19
37078;BME280;22989;55.998;37.212;2023-03-03T15:28:13;-11298.94;;;-145.39;50.07
37078;BME280;22989;55.998;37.212;2023-03-03T15:30:54;-11298.94;;;-145.39;50.23
37078;BME280;22989;55.998;37.212;2023-03-03T15:36:07;-11298.94;;;-145.39;50.31
37078;BME280;22989;55.998;37.212;2023-03-03T15:41:49;-11298.94;;;-145.39;50.51
37078;BME280;22989;55.998;37.212;2023-03-03T15:47:09;-11298.94;;;-145.39;50.48
37078;BME280;22989;55.998;37.212;2023-03-03T16:03:16;-11298.94;;;-145.39;50.64
37078;BME280;22989;55.998;37.212;2023-03-03T16:11:41;-11298.94;;;-145.39;50.81
37078;BME280;22989;55.998;37.212;2023-03-03T16:17:31;-11298.94;;;-145.39;50.88
37078;BME280;22989;55.998;37.212;2023-03-03T16:20:14;-11298.94;;;-145.39;50.88
37078;BME280;22989;55.998;37.212;2023-03-03T16:22:58;-11298.94;;;-145.39;50.80
37078;BME280;22989;55.998;37.212;2023-03-03T16:33:42;-11298.94;;;-145.39;50.87